sensor_id;sensor_type;location;lat;lon;timestamp;P1;durP1;ratioP1;P2;durP2;ratioP2
8665;SDS011;4370;48.916;8.380;2023-05-02T00:01:01;10.23;;;8.07;;
8665;SDS011;4370;48.916;8.380;2023-05-02T00:03:29;11.00;;;8.83;;
8665;SDS011;4370;48.916;8.380;2023-05-02T00:05:55;9.67;;;8.23;;
8665;SDS011;4370;48.916;8.380;2023-05-02T00:08:21;10.77;;;7.17;;
8665;SDS011;4370;48.916;8.380;2023-05-02T00:10:47;9.83;;;7.53;;
8665;SDS011;4370;48.916;8.380;2023-05-02T00:13:13;8.90;;;7.60;;
8665;SDS011;4370;48.916;8.380;2023-05-02T00:15:38;8.80;;;7.33;;
8665;SDS011;4370;48.916;8.380;2023-05-02T00:18:04;9.00;;;6.80;;
8665;SDS011;4370;48.916;8.380;2023-05-02T00:20:30;8.13;;;6.27;;
8665;SDS011;4370;48.916;8.380;2023-05-02T00:22:55;7.27;;;6.07;;
8665;SDS011;4370;48.916;8.380;2023-05-02T00:25:21;6.57;;;5.77;;
8665;SDS011;4370;48.916;8.380;2023-05-02T00:27:47;6.83;;;6.13;;
8665;SDS011;4370;48.916;8.380;2023-05-02T00:30:15;10.87;;;7.23;;
8665;SDS011;4370;48.916;8.380;2023-05-02T00:32:42;7.73;;;6.87;;
8665;SDS011;4370;48.916;8.380;2023-05-02T00:35:08;9.00;;;7.50;;
8665;SDS011;4370;48.916;8.380;2023-05-02T00:37:34;9.10;;;7.33;;
8665;SDS011;4370;48.916;8.380;2023-05-02T00:40:00;7.40;;;6.67;;
8665;SDS011;4370;48.916;8.380;2023-05-02T00:42:26;10.33;;;7.70;;
8665;SDS011;4370;48.916;8.380;2023-05-02T00:44:56;7.20;;;6.50;;
8665;SDS011;4370;48.916;8.380;2023-05-02T00:47:22;9.27;;;8.10;;
8665;SDS011;4370;48.916;8.380;2023-05-02T00:49:51;7.90;;;7.10;;
8665;SDS011;4370;48.916;8.380;2023-05-02T00:52:16;7.93;;;6.80;;
8665;SDS011;4370;48.916;8.380;2023-05-02T00:54:43;10.87;;;8.53;;
8665;SDS011;4370;48.916;8.380;2023-05-02T00:57:09;9.93;;;7.90;;
8665;SDS011;4370;48.916;8.380;2023-05-02T00:59:35;9.23;;;7.90;;
8665;SDS011;4370;48.916;8.380;2023-05-02T01:02:15;8.10;;;6.87;;
8665;SDS011;4370;48.916;8.380;2023-05-02T01:05:09;10.93;;;8.47;;
8665;SDS011;4370;48.916;8.380;2023-05-02T01:08:06;9.70;;;8.00;;
8665;SDS011;4370;48.916;8.380;2023-05-02T01:10:55;10.80;;;8.70;;
8665;SDS011;4370;48.916;8.380;2023-05-02T01:13:30;9.67;;;7.70;;
8665;SDS011;4370;48.916;8.380;2023-05-02T01:15:57;9.10;;;7.30;;
8665;SDS011;4370;48.916;8.380;2023-05-02T01:18:27;7.73;;;6.97;;
8665;SDS011;4370;48.916;8.380;2023-05-02T01:21:00;8.77;;;6.73;;
8665;SDS011;4370;48.916;8.380;2023-05-02T01:23:40;7.97;;;7.03;;
8665;SDS011;4370;48.916;8.380;2023-05-02T01:29:11;6.53;;;5.90;;
8665;SDS011;4370;48.916;8.380;2023-05-02T01:31:40;7.27;;;6.50;;
8665;SDS011;4370;48.916;8.380;2023-05-02T01:34:09;7.10;;;6.20;;
8665;SDS011;4370;48.916;8.380;2023-05-02T01:36:35;8.83;;;6.20;;
8665;SDS011;4370;48.916;8.380;2023-05-02T01:39:04;10.33;;;7.63;;
8665;SDS011;4370;48.916;8.380;2023-05-02T01:41:32;7.27;;;6.07;;
8665;SDS011;4370;48.916;8.380;2023-05-02T01:44:00;8.27;;;7.07;;
8665;SDS011;4370;48.916;8.380;2023-05-02T01:46:29;6.83;;;6.13;;
8665;SDS011;4370;48.916;8.380;2023-05-02T01:48:57;7.60;;;6.50;;
8665;SDS011;4370;48.916;8.380;2023-05-02T01:51:26;10.03;;;6.47;;
8665;SDS011;4370;48.916;8.380;2023-05-02T01:53:56;7.43;;;6.27;;
8665;SDS011;4370;48.916;8.380;2023-05-02T01:56:30;6.90;;;6.00;;
8665;SDS011;4370;48.916;8.380;2023-05-02T01:58:58;6.70;;;6.00;;
8665;SDS011;4370;48.916;8.380;2023-05-02T02:01:24;6.60;;;5.93;;
8665;SDS011;4370;48.916;8.380;2023-05-02T02:03:55;8.50;;;6.17;;
8665;SDS011;4370;48.916;8.380;2023-05-02T02:06:22;10.23;;;6.93;;
8665;SDS011;4370;48.916;8.380;2023-05-02T02:08:49;6.63;;;5.93;;
8665;SDS011;4370;48.916;8.380;2023-05-02T02:11:20;6.93;;;5.90;;
8665;SDS011;4370;48.916;8.380;2023-05-02T02:13:52;6.13;;;5.50;;
8665;SDS011;4370;48.916;8.380;2023-05-02T02:16:27;6.43;;;5.70;;
8665;SDS011;4370;48.916;8.380;2023-05-02T02:18:55;6.53;;;5.80;;
8665;SDS011;4370;48.916;8.380;2023-05-02T02:21:23;7.63;;;6.37;;
8665;SDS011;4370;48.916;8.380;2023-05-02T02:23:53;7.67;;;6.50;;
8665;SDS011;4370;48.916;8.380;2023-05-02T02:26:25;6.70;;;5.73;;
8665;SDS011;4370;48.916;8.380;2023-05-02T02:28:51;8.07;;;6.73;;
8665;SDS011;4370;48.916;8.380;2023-05-02T02:31:17;7.00;;;6.30;;
8665;SDS011;4370;48.916;8.380;2023-05-02T02:33:45;6.70;;;6.00;;
8665;SDS011;4370;48.916;8.380;2023-05-02T02:36:14;7.77;;;6.87;;
8665;SDS011;4370;48.916;8.380;2023-05-02T02:38:58;9.97;;;8.10;;
8665;SDS011;4370;48.916;8.380;2023-05-02T02:41:39;9.63;;;7.97;;
8665;SDS011;4370;48.916;8.380;2023-05-02T02:44:20;8.90;;;7.93;;
8665;SDS011;4370;48.916;8.380;2023-05-02T02:47:15;8.27;;;7.37;;
8665;SDS011;4370;48.916;8.380;2023-05-02T02:52:47;7.70;;;6.70;;
8665;SDS011;4370;48.916;8.380;2023-05-02T02:55:30;7.53;;;6.73;;
8665;SDS011;4370;48.916;8.380;2023-05-02T03:00:51;6.87;;;6.17;;
8665;SDS011;4370;48.916;8.380;2023-05-02T03:03:17;7.97;;;6.70;;
8665;SDS011;4370;48.916;8.380;2023-05-02T03:05:46;7.90;;;7.10;;
8665;SDS011;4370;48.916;8.380;2023-05-02T03:08:13;7.67;;;6.87;;
8665;SDS011;4370;48.916;8.380;2023-05-02T03:10:39;7.40;;;6.53;;
8665;SDS011;4370;48.916;8.380;2023-05-02T03:13:04;7.47;;;6.40;;
8665;SDS011;4370;48.916;8.380;2023-05-02T03:18:15;8.00;;;6.37;;
8665;SDS011;4370;48.916;8.380;2023-05-02T03:20:41;7.53;;;6.60;;
8665;SDS011;4370;48.916;8.380;2023-05-02T03:23:08;7.93;;;7.03;;
8665;SDS011;4370;48.916;8.380;2023-05-02T03:25:33;10.03;;;8.07;;
8665;SDS011;4370;48.916;8.380;2023-05-02T03:28:00;8.13;;;7.13;;
8665;SDS011;4370;48.916;8.380;2023-05-02T03:30:25;7.57;;;6.80;;
8665;SDS011;4370;48.916;8.380;2023-05-02T03:32:51;7.90;;;6.20;;
8665;SDS011;4370;48.916;8.380;2023-05-02T03:35:25;7.60;;;6.50;;
8665;SDS011;4370;48.916;8.380;2023-05-02T03:37:50;7.53;;;6.40;;
8665;SDS011;4370;48.916;8.380;2023-05-02T03:40:16;6.80;;;5.97;;
8665;SDS011;4370;48.916;8.380;2023-05-02T03:42:45;7.00;;;6.30;;
8665;SDS011;4370;48.916;8.380;2023-05-02T03:45:11;7.80;;;7.00;;
8665;SDS011;4370;48.916;8.380;2023-05-02T03:47:37;7.80;;;6.93;;
8665;SDS011;4370;48.916;8.380;2023-05-02T03:50:03;9.37;;;7.43;;
8665;SDS011;4370;48.916;8.380;2023-05-02T03:52:29;7.87;;;6.90;;
8665;SDS011;4370;48.916;8.380;2023-05-02T03:54:55;6.90;;;6.20;;
8665;SDS011;4370;48.916;8.380;2023-05-02T03:57:21;7.83;;;6.53;;
8665;SDS011;4370;48.916;8.380;2023-05-02T03:59:47;8.73;;;7.03;;
8665;SDS011;4370;48.916;8.380;2023-05-02T04:02:14;8.57;;;7.17;;
8665;SDS011;4370;48.916;8.380;2023-05-02T04:04:39;8.13;;;7.27;;
8665;SDS011;4370;48.916;8.380;2023-05-02T04:07:07;10.03;;;7.93;;
8665;SDS011;4370;48.916;8.380;2023-05-02T04:09:40;22.87;;;11.03;;
8665;SDS011;4370;48.916;8.380;2023-05-02T04:12:07;13.43;;;9.30;;
8665;SDS011;4370;48.916;8.380;2023-05-02T04:14:32;10.23;;;7.90;;
8665;SDS011;4370;48.916;8.380;2023-05-02T04:16:58;9.93;;;7.50;;
8665;SDS011;4370;48.916;8.380;2023-05-02T04:19:37;9.03;;;7.70;;
8665;SDS011;4370;48.916;8.380;2023-05-02T04:22:03;13.70;;;9.57;;
8665;SDS011;4370;48.916;8.380;2023-05-02T04:24:29;20.17;;;12.70;;
8665;SDS011;4370;48.916;8.380;2023-05-02T04:26:54;14.60;;;10.40;;
8665;SDS011;4370;48.916;8.380;2023-05-02T04:29:21;12.93;;;9.10;;
8665;SDS011;4370;48.916;8.380;2023-05-02T04:31:47;12.23;;;8.50;;
8665;SDS011;4370;48.916;8.380;2023-05-02T04:34:14;11.03;;;7.90;;
8665;SDS011;4370;48.916;8.380;2023-05-02T04:36:46;12.17;;;9.53;;
8665;SDS011;4370;48.916;8.380;2023-05-02T04:39:12;9.73;;;8.03;;
8665;SDS011;4370;48.916;8.380;2023-05-02T04:41:39;10.00;;;7.60;;
8665;SDS011;4370;48.916;8.380;2023-05-02T04:44:07;9.10;;;7.60;;
8665;SDS011;4370;48.916;8.380;2023-05-02T04:46:34;9.97;;;8.03;;
8665;SDS011;4370;48.916;8.380;2023-05-02T04:49:00;10.80;;;8.57;;
8665;SDS011;4370;48.916;8.380;2023-05-02T04:51:26;8.70;;;7.77;;
8665;SDS011;4370;48.916;8.380;2023-05-02T04:53:53;8.77;;;7.60;;
8665;SDS011;4370;48.916;8.380;2023-05-02T04:56:21;8.50;;;7.13;;
8665;SDS011;4370;48.916;8.380;2023-05-02T04:58:47;8.83;;;7.93;;
8665;SDS011;4370;48.916;8.380;2023-05-02T05:01:13;8.53;;;7.10;;
8665;SDS011;4370;48.916;8.380;2023-05-02T05:03:42;7.90;;;6.67;;
8665;SDS011;4370;48.916;8.380;2023-05-02T05:06:08;9.73;;;6.93;;
8665;SDS011;4370;48.916;8.380;2023-05-02T05:08:34;6.80;;;6.10;;
8665;SDS011;4370;48.916;8.380;2023-05-02T05:11:00;6.97;;;6.27;;
8665;SDS011;4370;48.916;8.380;2023-05-02T05:13:29;10.70;;;6.93;;
8665;SDS011;4370;48.916;8.380;2023-05-02T05:15:56;8.03;;;6.77;;
8665;SDS011;4370;48.916;8.380;2023-05-02T05:18:22;8.83;;;6.80;;
8665;SDS011;4370;48.916;8.380;2023-05-02T05:20:48;8.00;;;7.20;;
8665;SDS011;4370;48.916;8.380;2023-05-02T05:23:14;11.70;;;6.60;;
8665;SDS011;4370;48.916;8.380;2023-05-02T05:25:40;7.90;;;7.03;;
8665;SDS011;4370;48.916;8.380;2023-05-02T05:28:06;7.30;;;6.60;;
8665;SDS011;4370;48.916;8.380;2023-05-02T05:30:32;7.70;;;7.00;;
8665;SDS011;4370;48.916;8.380;2023-05-02T05:32:59;9.23;;;7.10;;
8665;SDS011;4370;48.916;8.380;2023-05-02T05:35:25;10.97;;;6.87;;
8665;SDS011;4370;48.916;8.380;2023-05-02T05:37:51;7.37;;;6.50;;
8665;SDS011;4370;48.916;8.380;2023-05-02T05:40:17;7.90;;;6.33;;
8665;SDS011;4370;48.916;8.380;2023-05-02T05:42:45;8.20;;;6.33;;
8665;SDS011;4370;48.916;8.380;2023-05-02T05:47:48;6.77;;;5.90;;
8665;SDS011;4370;48.916;8.380;2023-05-02T05:50:14;8.20;;;6.50;;
8665;SDS011;4370;48.916;8.380;2023-05-02T05:52:40;7.57;;;6.80;;
8665;SDS011;4370;48.916;8.380;2023-05-02T05:55:06;7.43;;;6.70;;
8665;SDS011;4370;48.916;8.380;2023-05-02T05:57:32;7.53;;;6.73;;
8665;SDS011;4370;48.916;8.380;2023-05-02T05:59:58;7.77;;;7.07;;
8665;SDS011;4370;48.916;8.380;2023-05-02T06:02:24;8.57;;;7.40;;
8665;SDS011;4370;48.916;8.380;2023-05-02T06:05:36;8.23;;;7.43;;
8665;SDS011;4370;48.916;8.380;2023-05-02T06:07:45;7.90;;;7.10;;
8665;SDS011;4370;48.916;8.380;2023-05-02T06:10:11;7.43;;;6.73;;
8665;SDS011;4370;48.916;8.380;2023-05-02T06:13:22;8.20;;;7.40;;
8665;SDS011;4370;48.916;8.380;2023-05-02T06:15:34;7.77;;;7.03;;
8665;SDS011;4370;48.916;8.380;2023-05-02T06:17:59;8.43;;;7.53;;
8665;SDS011;4370;48.916;8.380;2023-05-02T06:20:25;8.17;;;7.37;;
8665;SDS011;4370;48.916;8.380;2023-05-02T06:22:51;8.20;;;7.00;;
8665;SDS011;4370;48.916;8.380;2023-05-02T06:25:18;8.23;;;6.33;;
8665;SDS011;4370;48.916;8.380;2023-05-02T06:27:44;7.67;;;6.87;;
8665;SDS011;4370;48.916;8.380;2023-05-02T06:30:10;7.97;;;6.53;;
8665;SDS011;4370;48.916;8.380;2023-05-02T06:32:36;7.87;;;6.20;;
8665;SDS011;4370;48.916;8.380;2023-05-02T06:35:02;7.53;;;5.30;;
8665;SDS011;4370;48.916;8.380;2023-05-02T06:37:31;4.93;;;4.50;;
8665;SDS011;4370;48.916;8.380;2023-05-02T06:39:58;6.17;;;3.93;;
8665;SDS011;4370;48.916;8.380;2023-05-02T06:42:24;4.67;;;4.27;;
8665;SDS011;4370;48.916;8.380;2023-05-02T06:44:50;5.63;;;3.63;;
8665;SDS011;4370;48.916;8.380;2023-05-02T06:47:16;4.10;;;3.70;;
8665;SDS011;4370;48.916;8.380;2023-05-02T06:49:42;4.63;;;4.07;;
8665;SDS011;4370;48.916;8.380;2023-05-02T06:52:08;5.60;;;4.20;;
8665;SDS011;4370;48.916;8.380;2023-05-02T06:54:34;4.70;;;4.27;;
8665;SDS011;4370;48.916;8.380;2023-05-02T06:57:00;5.60;;;4.50;;
8665;SDS011;4370;48.916;8.380;2023-05-02T06:59:26;6.60;;;5.00;;
8665;SDS011;4370;48.916;8.380;2023-05-02T07:01:52;5.90;;;5.27;;
8665;SDS011;4370;48.916;8.380;2023-05-02T07:04:18;5.13;;;4.63;;
8665;SDS011;4370;48.916;8.380;2023-05-02T07:06:44;7.63;;;5.27;;
8665;SDS011;4370;48.916;8.380;2023-05-02T07:09:10;8.33;;;6.00;;
8665;SDS011;4370;48.916;8.380;2023-05-02T07:11:39;7.03;;;5.70;;
8665;SDS011;4370;48.916;8.380;2023-05-02T07:14:05;6.00;;;5.07;;
8665;SDS011;4370;48.916;8.380;2023-05-02T07:16:30;6.13;;;5.13;;
8665;SDS011;4370;48.916;8.380;2023-05-02T07:18:57;7.53;;;5.57;;
8665;SDS011;4370;48.916;8.380;2023-05-02T07:21:23;5.80;;;5.20;;
8665;SDS011;4370;48.916;8.380;2023-05-02T07:23:49;6.60;;;5.50;;
8665;SDS011;4370;48.916;8.380;2023-05-02T07:26:15;6.77;;;5.20;;
8665;SDS011;4370;48.916;8.380;2023-05-02T07:28:42;5.20;;;4.70;;
8665;SDS011;4370;48.916;8.380;2023-05-02T07:31:08;8.30;;;5.60;;
8665;SDS011;4370;48.916;8.380;2023-05-02T07:33:34;5.17;;;4.67;;
8665;SDS011;4370;48.916;8.380;2023-05-02T07:36:01;5.30;;;4.80;;
8665;SDS011;4370;48.916;8.380;2023-05-02T07:38:27;6.10;;;5.50;;
8665;SDS011;4370;48.916;8.380;2023-05-02T07:40:56;6.03;;;4.77;;
8665;SDS011;4370;48.916;8.380;2023-05-02T07:43:23;6.23;;;5.63;;
8665;SDS011;4370;48.916;8.380;2023-05-02T07:45:49;6.23;;;4.70;;
8665;SDS011;4370;48.916;8.380;2023-05-02T07:48:14;5.30;;;4.80;;
8665;SDS011;4370;48.916;8.380;2023-05-02T07:50:40;7.13;;;5.20;;
8665;SDS011;4370;48.916;8.380;2023-05-02T07:53:05;5.10;;;4.60;;
8665;SDS011;4370;48.916;8.380;2023-05-02T07:55:32;5.27;;;4.40;;
8665;SDS011;4370;48.916;8.380;2023-05-02T07:57:58;7.10;;;4.80;;
8665;SDS011;4370;48.916;8.380;2023-05-02T08:00:24;4.93;;;4.43;;
8665;SDS011;4370;48.916;8.380;2023-05-02T08:02:50;5.03;;;4.53;;
8665;SDS011;4370;48.916;8.380;2023-05-02T08:05:15;5.23;;;4.73;;
8665;SDS011;4370;48.916;8.380;2023-05-02T08:07:41;5.40;;;4.83;;
8665;SDS011;4370;48.916;8.380;2023-05-02T08:10:08;5.93;;;5.43;;
8665;SDS011;4370;48.916;8.380;2023-05-02T08:12:39;6.33;;;5.70;;
8665;SDS011;4370;48.916;8.380;2023-05-02T08:15:06;6.87;;;5.80;;
8665;SDS011;4370;48.916;8.380;2023-05-02T08:17:32;8.07;;;7.27;;
8665;SDS011;4370;48.916;8.380;2023-05-02T08:19:58;8.93;;;8.03;;
8665;SDS011;4370;48.916;8.380;2023-05-02T08:22:25;10.60;;;8.67;;
8665;SDS011;4370;48.916;8.380;2023-05-02T08:24:50;11.20;;;9.40;;
8665;SDS011;4370;48.916;8.380;2023-05-02T08:27:16;11.37;;;10.20;;
8665;SDS011;4370;48.916;8.380;2023-05-02T08:29:42;12.63;;;11.37;;
8665;SDS011;4370;48.916;8.380;2023-05-02T08:32:08;12.87;;;11.50;;
8665;SDS011;4370;48.916;8.380;2023-05-02T08:34:33;12.87;;;10.87;;
8665;SDS011;4370;48.916;8.380;2023-05-02T08:36:59;11.43;;;9.97;;
8665;SDS011;4370;48.916;8.380;2023-05-02T08:39:25;16.27;;;11.03;;
8665;SDS011;4370;48.916;8.380;2023-05-02T08:41:51;15.80;;;12.83;;
8665;SDS011;4370;48.916;8.380;2023-05-02T08:44:17;13.27;;;11.03;;
8665;SDS011;4370;48.916;8.380;2023-05-02T08:46:43;16.57;;;12.13;;
8665;SDS011;4370;48.916;8.380;2023-05-02T08:49:10;17.63;;;12.60;;
8665;SDS011;4370;48.916;8.380;2023-05-02T08:51:36;15.30;;;12.17;;
8665;SDS011;4370;48.916;8.380;2023-05-02T08:54:04;15.10;;;11.83;;
8665;SDS011;4370;48.916;8.380;2023-05-02T08:56:33;14.10;;;11.47;;
8665;SDS011;4370;48.916;8.380;2023-05-02T08:58:59;12.37;;;11.07;;
8665;SDS011;4370;48.916;8.380;2023-05-02T09:01:29;12.50;;;10.77;;
8665;SDS011;4370;48.916;8.380;2023-05-02T09:03:57;14.10;;;11.90;;
8665;SDS011;4370;48.916;8.380;2023-05-02T09:06:25;14.97;;;11.97;;
8665;SDS011;4370;48.916;8.380;2023-05-02T09:08:51;11.77;;;10.43;;
8665;SDS011;4370;48.916;8.380;2023-05-02T09:11:17;13.70;;;11.57;;
8665;SDS011;4370;48.916;8.380;2023-05-02T09:13:44;15.43;;;13.67;;
8665;SDS011;4370;48.916;8.380;2023-05-02T09:16:15;14.77;;;12.77;;
8665;SDS011;4370;48.916;8.380;2023-05-02T09:18:44;12.87;;;11.50;;
8665;SDS011;4370;48.916;8.380;2023-05-02T09:21:15;15.17;;;13.53;;
8665;SDS011;4370;48.916;8.380;2023-05-02T09:23:44;14.70;;;12.87;;
8665;SDS011;4370;48.916;8.380;2023-05-02T09:26:14;19.50;;;14.73;;
8665;SDS011;4370;48.916;8.380;2023-05-02T09:28:59;17.70;;;15.50;;
8665;SDS011;4370;48.916;8.380;2023-05-02T09:31:27;18.03;;;13.93;;
8665;SDS011;4370;48.916;8.380;2023-05-02T09:33:55;17.37;;;15.47;;
8665;SDS011;4370;48.916;8.380;2023-05-02T09:36:22;19.10;;;13.80;;
8665;SDS011;4370;48.916;8.380;2023-05-02T09:38:48;14.03;;;12.50;;
8665;SDS011;4370;48.916;8.380;2023-05-02T09:41:15;16.20;;;12.03;;
8665;SDS011;4370;48.916;8.380;2023-05-02T09:43:53;13.50;;;12.13;;
8665;SDS011;4370;48.916;8.380;2023-05-02T09:46:21;17.83;;;15.40;;
8665;SDS011;4370;48.916;8.380;2023-05-02T09:48:54;21.33;;;17.53;;
8665;SDS011;4370;48.916;8.380;2023-05-02T09:51:22;20.47;;;15.90;;
8665;SDS011;4370;48.916;8.380;2023-05-02T09:53:51;19.13;;;16.33;;
8665;SDS011;4370;48.916;8.380;2023-05-02T09:56:17;20.20;;;15.40;;
8665;SDS011;4370;48.916;8.380;2023-05-02T09:58:43;22.37;;;17.73;;
8665;SDS011;4370;48.916;8.380;2023-05-02T10:01:18;19.33;;;17.30;;
8665;SDS011;4370;48.916;8.380;2023-05-02T10:03:46;21.40;;;17.93;;
8665;SDS011;4370;48.916;8.380;2023-05-02T10:06:17;26.33;;;21.50;;
8665;SDS011;4370;48.916;8.380;2023-05-02T10:08:44;24.23;;;21.33;;
8665;SDS011;4370;48.916;8.380;2023-05-02T10:11:12;24.63;;;20.90;;
8665;SDS011;4370;48.916;8.380;2023-05-02T10:13:39;22.10;;;18.47;;
8665;SDS011;4370;48.916;8.380;2023-05-02T10:16:06;22.60;;;18.70;;
8665;SDS011;4370;48.916;8.380;2023-05-02T10:18:38;21.93;;;19.53;;
8665;SDS011;4370;48.916;8.380;2023-05-02T10:21:07;21.07;;;18.80;;
8665;SDS011;4370;48.916;8.380;2023-05-02T10:23:34;18.57;;;16.57;;
8665;SDS011;4370;48.916;8.380;2023-05-02T10:26:00;20.47;;;18.30;;
8665;SDS011;4370;48.916;8.380;2023-05-02T10:28:27;21.83;;;18.30;;
8665;SDS011;4370;48.916;8.380;2023-05-02T10:30:54;17.73;;;15.83;;
8665;SDS011;4370;48.916;8.380;2023-05-02T10:33:21;21.67;;;18.77;;
8665;SDS011;4370;48.916;8.380;2023-05-02T10:35:47;19.43;;;16.77;;
8665;SDS011;4370;48.916;8.380;2023-05-02T10:38:17;21.17;;;18.87;;
8665;SDS011;4370;48.916;8.380;2023-05-02T10:41:01;17.83;;;15.93;;
8665;SDS011;4370;48.916;8.380;2023-05-02T10:43:30;19.20;;;16.60;;
8665;SDS011;4370;48.916;8.380;2023-05-02T10:45:59;22.67;;;19.27;;
8665;SDS011;4370;48.916;8.380;2023-05-02T10:48:29;21.57;;;18.67;;
8665;SDS011;4370;48.916;8.380;2023-05-02T10:50:57;21.67;;;19.10;;
8665;SDS011;4370;48.916;8.380;2023-05-02T10:58:40;22.53;;;17.93;;
8665;SDS011;4370;48.916;8.380;2023-05-02T11:04:04;20.37;;;17.20;;
8665;SDS011;4370;48.916;8.380;2023-05-02T11:06:32;23.03;;;19.10;;
8665;SDS011;4370;48.916;8.380;2023-05-02T11:14:08;22.53;;;20.13;;
8665;SDS011;4370;48.916;8.380;2023-05-02T11:24:56;24.40;;;20.40;;
8665;SDS011;4370;48.916;8.380;2023-05-02T11:29:59;27.90;;;22.50;;
8665;SDS011;4370;48.916;8.380;2023-05-02T11:35:21;21.20;;;18.07;;
8665;SDS011;4370;48.916;8.380;2023-05-02T11:40:27;29.43;;;20.87;;
8665;SDS011;4370;48.916;8.380;2023-05-02T11:42:53;20.00;;;17.87;;
8665;SDS011;4370;48.916;8.380;2023-05-02T11:45:20;18.23;;;15.40;;
8665;SDS011;4370;48.916;8.380;2023-05-02T11:47:47;20.10;;;15.77;;
8665;SDS011;4370;48.916;8.380;2023-05-02T11:50:15;20.50;;;16.87;;
8665;SDS011;4370;48.916;8.380;2023-05-02T11:52:43;19.47;;;15.80;;
8665;SDS011;4370;48.916;8.380;2023-05-02T11:55:11;21.03;;;16.10;;
8665;SDS011;4370;48.916;8.380;2023-05-02T11:57:39;17.87;;;14.37;;
8665;SDS011;4370;48.916;8.380;2023-05-02T12:00:06;17.27;;;15.33;;
8665;SDS011;4370;48.916;8.380;2023-05-02T12:02:36;16.50;;;14.47;;
8665;SDS011;4370;48.916;8.380;2023-05-02T12:05:06;17.30;;;13.77;;
8665;SDS011;4370;48.916;8.380;2023-05-02T12:07:38;19.03;;;14.50;;
8665;SDS011;4370;48.916;8.380;2023-05-02T12:10:11;15.97;;;13.40;;
8665;SDS011;4370;48.916;8.380;2023-05-02T12:12:38;17.70;;;14.17;;
8665;SDS011;4370;48.916;8.380;2023-05-02T12:17:31;17.67;;;14.63;;
8665;SDS011;4370;48.916;8.380;2023-05-02T12:19:59;17.27;;;14.00;;
8665;SDS011;4370;48.916;8.380;2023-05-02T12:22:26;20.23;;;14.00;;
8665;SDS011;4370;48.916;8.380;2023-05-02T12:24:52;17.17;;;13.43;;
8665;SDS011;4370;48.916;8.380;2023-05-02T12:27:18;15.63;;;12.87;;
8665;SDS011;4370;48.916;8.380;2023-05-02T12:29:46;15.80;;;13.13;;
8665;SDS011;4370;48.916;8.380;2023-05-02T12:32:12;14.80;;;12.60;;
8665;SDS011;4370;48.916;8.380;2023-05-02T12:34:39;14.10;;;11.90;;
8665;SDS011;4370;48.916;8.380;2023-05-02T12:37:05;14.20;;;11.80;;
8665;SDS011;4370;48.916;8.380;2023-05-02T12:39:33;12.93;;;10.87;;
8665;SDS011;4370;48.916;8.380;2023-05-02T12:42:11;12.07;;;9.67;;
8665;SDS011;4370;48.916;8.380;2023-05-02T12:44:44;11.83;;;9.30;;
8665;SDS011;4370;48.916;8.380;2023-05-02T12:47:11;16.57;;;9.17;;
8665;SDS011;4370;48.916;8.380;2023-05-02T12:49:50;9.67;;;8.63;;
8665;SDS011;4370;48.916;8.380;2023-05-02T12:55:25;12.23;;;8.80;;
8665;SDS011;4370;48.916;8.380;2023-05-02T12:58:01;12.20;;;7.50;;
8665;SDS011;4370;48.916;8.380;2023-05-02T13:00:28;9.97;;;7.37;;
8665;SDS011;4370;48.916;8.380;2023-05-02T13:02:55;12.07;;;8.57;;
8665;SDS011;4370;48.916;8.380;2023-05-02T13:05:21;11.17;;;8.57;;
8665;SDS011;4370;48.916;8.380;2023-05-02T13:07:47;9.03;;;7.67;;
8665;SDS011;4370;48.916;8.380;2023-05-02T13:10:13;8.77;;;7.20;;
8665;SDS011;4370;48.916;8.380;2023-05-02T13:12:41;10.43;;;8.17;;
8665;SDS011;4370;48.916;8.380;2023-05-02T13:15:07;12.23;;;7.10;;
8665;SDS011;4370;48.916;8.380;2023-05-02T13:17:33;8.90;;;7.27;;
8665;SDS011;4370;48.916;8.380;2023-05-02T13:19:59;9.93;;;7.20;;
8665;SDS011;4370;48.916;8.380;2023-05-02T13:22:28;9.87;;;7.90;;
8665;SDS011;4370;48.916;8.380;2023-05-02T13:24:54;10.77;;;8.20;;
8665;SDS011;4370;48.916;8.380;2023-05-02T13:27:23;11.13;;;7.60;;
8665;SDS011;4370;48.916;8.380;2023-05-02T13:29:49;8.73;;;7.30;;
8665;SDS011;4370;48.916;8.380;2023-05-02T13:32:15;9.53;;;6.80;;
8665;SDS011;4370;48.916;8.380;2023-05-02T13:34:41;8.73;;;6.97;;
8665;SDS011;4370;48.916;8.380;2023-05-02T13:37:07;8.07;;;6.67;;
8665;SDS011;4370;48.916;8.380;2023-05-02T13:39:33;8.83;;;6.60;;
8665;SDS011;4370;48.916;8.380;2023-05-02T13:41:59;8.80;;;6.63;;
8665;SDS011;4370;48.916;8.380;2023-05-02T13:44:28;8.57;;;6.03;;
8665;SDS011;4370;48.916;8.380;2023-05-02T13:46:55;7.33;;;5.63;;
8665;SDS011;4370;48.916;8.380;2023-05-02T13:49:21;6.67;;;5.80;;
8665;SDS011;4370;48.916;8.380;2023-05-02T13:51:47;12.27;;;7.37;;
8665;SDS011;4370;48.916;8.380;2023-05-02T13:54:13;7.73;;;6.30;;
8665;SDS011;4370;48.916;8.380;2023-05-02T13:56:39;8.67;;;6.57;;
8665;SDS011;4370;48.916;8.380;2023-05-02T13:59:05;8.70;;;6.50;;
8665;SDS011;4370;48.916;8.380;2023-05-02T14:01:31;9.30;;;7.07;;
8665;SDS011;4370;48.916;8.380;2023-05-02T14:03:57;8.00;;;6.37;;
8665;SDS011;4370;48.916;8.380;2023-05-02T14:06:23;9.90;;;6.97;;
8665;SDS011;4370;48.916;8.380;2023-05-02T14:08:49;9.10;;;6.10;;
8665;SDS011;4370;48.916;8.380;2023-05-02T14:11:15;8.27;;;7.30;;
8665;SDS011;4370;48.916;8.380;2023-05-02T14:13:41;11.13;;;7.50;;
8665;SDS011;4370;48.916;8.380;2023-05-02T14:16:07;8.40;;;6.67;;
8665;SDS011;4370;48.916;8.380;2023-05-02T14:18:34;9.83;;;7.40;;
8665;SDS011;4370;48.916;8.380;2023-05-02T14:20:59;8.93;;;6.77;;
8665;SDS011;4370;48.916;8.380;2023-05-02T14:23:27;8.27;;;6.37;;
8665;SDS011;4370;48.916;8.380;2023-05-02T14:25:53;7.47;;;6.03;;
8665;SDS011;4370;48.916;8.380;2023-05-02T14:28:19;7.27;;;5.80;;
8665;SDS011;4370;48.916;8.380;2023-05-02T14:30:49;7.70;;;5.93;;
8665;SDS011;4370;48.916;8.380;2023-05-02T14:33:15;7.73;;;6.13;;
8665;SDS011;4370;48.916;8.380;2023-05-02T14:35:41;7.40;;;6.20;;
8665;SDS011;4370;48.916;8.380;2023-05-02T14:38:06;8.30;;;5.93;;
8665;SDS011;4370;48.916;8.380;2023-05-02T14:40:32;8.03;;;6.20;;
8665;SDS011;4370;48.916;8.380;2023-05-02T14:42:59;7.23;;;5.60;;
8665;SDS011;4370;48.916;8.380;2023-05-02T14:45:25;7.73;;;5.67;;
8665;SDS011;4370;48.916;8.380;2023-05-02T14:47:51;5.57;;;4.70;;
8665;SDS011;4370;48.916;8.380;2023-05-02T14:50:17;6.13;;;4.60;;
8665;SDS011;4370;48.916;8.380;2023-05-02T14:52:43;4.97;;;4.27;;
8665;SDS011;4370;48.916;8.380;2023-05-02T14:55:12;4.07;;;3.50;;
8665;SDS011;4370;48.916;8.380;2023-05-02T14:57:37;4.37;;;3.10;;
8665;SDS011;4370;48.916;8.380;2023-05-02T15:00:03;6.77;;;3.70;;
8665;SDS011;4370;48.916;8.380;2023-05-02T15:02:34;6.23;;;4.37;;
8665;SDS011;4370;48.916;8.380;2023-05-02T15:05:00;6.43;;;4.33;;
8665;SDS011;4370;48.916;8.380;2023-05-02T15:07:27;6.50;;;4.33;;
8665;SDS011;4370;48.916;8.380;2023-05-02T15:09:53;4.07;;;3.63;;
8665;SDS011;4370;48.916;8.380;2023-05-02T15:12:18;4.93;;;4.20;;
8665;SDS011;4370;48.916;8.380;2023-05-02T15:14:44;4.27;;;3.60;;
8665;SDS011;4370;48.916;8.380;2023-05-02T15:17:09;5.17;;;4.07;;
8665;SDS011;4370;48.916;8.380;2023-05-02T15:19:36;7.20;;;4.93;;
8665;SDS011;4370;48.916;8.380;2023-05-02T15:22:01;4.33;;;3.83;;
8665;SDS011;4370;48.916;8.380;2023-05-02T15:24:27;5.90;;;3.90;;
8665;SDS011;4370;48.916;8.380;2023-05-02T15:26:53;8.47;;;4.17;;
8665;SDS011;4370;48.916;8.380;2023-05-02T15:29:19;4.60;;;3.73;;
8665;SDS011;4370;48.916;8.380;2023-05-02T15:31:47;6.17;;;3.20;;
8665;SDS011;4370;48.916;8.380;2023-05-02T15:34:13;4.67;;;3.20;;
8665;SDS011;4370;48.916;8.380;2023-05-02T15:36:39;5.13;;;3.30;;
8665;SDS011;4370;48.916;8.380;2023-05-02T15:39:05;5.73;;;3.30;;
8665;SDS011;4370;48.916;8.380;2023-05-02T15:41:32;4.63;;;2.83;;
8665;SDS011;4370;48.916;8.380;2023-05-02T15:43:58;4.80;;;2.60;;
8665;SDS011;4370;48.916;8.380;2023-05-02T15:46:26;3.43;;;3.13;;
8665;SDS011;4370;48.916;8.380;2023-05-02T15:48:52;4.53;;;3.00;;
8665;SDS011;4370;48.916;8.380;2023-05-02T15:51:18;7.10;;;3.07;;
8665;SDS011;4370;48.916;8.380;2023-05-02T15:53:44;5.07;;;3.57;;
8665;SDS011;4370;48.916;8.380;2023-05-02T15:56:13;4.93;;;3.07;;
8665;SDS011;4370;48.916;8.380;2023-05-02T15:58:39;5.17;;;2.60;;
8665;SDS011;4370;48.916;8.380;2023-05-02T16:01:05;3.93;;;2.43;;